Latest Weather Observations for Snowtown

IDS60801

Issued at 11:31 pm CST Thursday 5 May 2016 (issued every 30 minutes, with the page automatically refreshed every 10 minutes)

About weather observations | Map of weather stations | Latest weather observations for SA | Other Formats
Station Details ID: 021133 Name: RAYVILLE PARK Lat: -33.77 Lon: 138.22 Height: 109.1 m
Data from the previous 72 hours. | See also: Recent months at Snowtown
Date/Time
CST
Temp
°C
App
Temp
°C
Dew
Point
Rel
Hum
%
Delta-T
°C
Wind Press
QNH
hPa
Press
MSL
hPa
Rain
since 9 am
mm
Dir
 
Spd
km/h
Gust
km/h
Spd
kts
Gust
kts
05/11:30pm 16.2 11.1 7.7 57 4.3 N 24 28 13 15 1013.1 1013.0 -
05/11:00pm 16.4 11.0 7.9 57 4.3 N 26 30 14 16 1013.1 1013.0 -
05/10:30pm 14.1 10.6 7.4 64 3.3 N 15 20 8 11 1013.4 1013.3 -
05/10:00pm 12.3 9.4 6.6 68 2.7 N 11 13 6 7 1013.5 1013.4 -
05/09:30pm 12.8 9.9 6.4 65 3.1 N 11 13 6 7 1013.5 1013.4 -
05/09:00pm 12.9 10.3 6.3 64 3.2 N 9 11 5 6 1013.4 1013.3 0.0
05/08:30pm 14.5 11.7 7.1 61 3.6 N 11 15 6 8 1013.3 1013.2 -
05/08:00pm 14.7 12.3 7.0 60 3.8 N 9 13 5 7 1013.0 1012.9 -
05/07:30pm 15.7 13.3 7.0 56 4.3 N 9 13 5 7 1013.0 1012.9 -
05/07:00pm 17.0 15.1 6.8 51 5.1 NNE 6 7 3 4 1012.9 1012.8 -
05/06:30pm 16.7 13.9 6.8 52 4.9 NW 11 13 6 7 1012.6 1012.6 -
05/06:00pm 18.7 16.2 6.5 45 6.1 NNW 9 11 5 6 1012.3 1012.3 -
05/05:30pm 21.2 17.9 6.3 38 7.6 NNW 13 17 7 9 1012.0 1012.0 -
05/05:00pm 23.8 19.1 6.1 32 9.1 NNW 20 26 11 14 1012.0 1012.0 -
05/04:30pm 24.4 17.9 6.6 32 9.3 NW 30 41 16 22 1012.0 1012.0 -
05/04:00pm 24.9 18.0 7.1 32 9.4 NW 33 44 18 24 1012.2 1012.2 -
05/03:30pm 24.8 17.5 7.0 32 9.3 NNW 35 44 19 24 1012.2 1012.2 -
05/03:00pm 25.0 18.3 7.2 32 9.4 NNW 32 46 17 25 1012.2 1012.2 -
05/02:00pm 24.6 17.4 5.9 30 9.6 NNW 33 44 18 24 1013.0 1012.9 0.2
05/01:30pm 24.3 17.0 7.0 33 9.1 NNW 35 44 19 24 1013.2 1013.1 0.0
05/01:00pm 24.3 17.6 8.3 36 8.6 NW 33 43 18 23 1013.6 1013.5 0.0
05/12:30pm 24.3 17.5 7.9 35 8.7 NNW 33 46 18 25 1013.9 1013.8 0.0
05/12:00pm 23.4 16.2 9.0 40 7.8 NNW 37 48 20 26 1014.4 1014.3 0.0
05/11:50am 23.5 17.0 8.8 39 7.9 NNW 33 56 18 30 1014.7 1014.6 0.0
05/11:30am 23.1 16.3 9.1 41 7.6 NNW 35 46 19 25 1015.1 1015.0 0.0
05/11:00am 22.6 15.9 9.7 44 7.0 NNW 35 48 19 26 1015.5 1015.4 0.0
05/10:30am 21.9 15.7 10.1 47 6.4 NNW 33 41 18 22 1016.0 1015.9 0.0
05/10:00am 20.2 15.7 10.0 52 5.5 N 24 30 13 16 1016.3 1016.3 0.0
05/09:30am 18.1 14.4 10.2 60 4.2 N 20 24 11 13 1016.5 1016.5 0.0
05/09:00am 15.9 12.3 10.0 68 3.1 NNE 19 24 10 13 1016.6 1016.6 0.0
05/08:30am 12.6 9.4 9.8 83 1.4 N 17 20 9 11 1016.5 1016.5 0.0
05/08:00am 10.2 7.4 8.6 90 0.8 N 13 15 7 8 1016.5 1016.5 0.0
05/07:30am 9.2 5.9 8.0 92 0.6 N 15 17 8 9 1016.4 1016.4 0.0
05/07:00am 9.1 5.3 7.4 89 0.8 N 17 19 9 10 1016.2 1016.2 0.0
05/06:30am 10.6 6.1 8.4 86 1.1 N 22 28 12 15 1016.1 1016.1 0.0
05/06:00am 9.3 5.2 7.9 91 0.7 N 19 20 10 11 1016.0 1015.9 0.0
05/05:30am 7.6 3.2 6.7 94 0.4 N 19 20 10 11 1015.7 1015.6 0.0
05/05:00am 7.6 3.2 6.4 92 0.6 NNE 19 20 10 11 1015.5 1015.4 0.0
05/04:30am 9.5 4.8 7.8 89 0.8 N 22 24 12 13 1015.5 1015.4 0.0
05/04:00am 9.1 5.0 7.9 92 0.6 N 19 22 10 12 1015.6 1015.5 0.0
05/03:30am 7.7 5.2 6.6 93 0.5 N 9 13 5 7 1015.7 1015.6 0.0
05/03:00am 7.7 4.4 6.6 93 0.5 N 13 15 7 8 1015.9 1015.8 0.0
05/02:30am 8.2 4.7 7.0 92 0.6 N 15 19 8 10 1016.0 1015.9 0.0
05/02:00am 8.0 4.8 6.8 92 0.6 N 13 15 7 8 1016.2 1016.2 0.0
05/01:30am 8.4 4.9 7.0 91 0.7 NNE 15 17 8 9 1016.4 1016.4 0.0
05/01:00am 9.2 6.6 7.6 90 0.8 N 11 13 6 7 1016.4 1016.4 0.0
05/12:30am 9.2 6.5 7.5 89 0.8 N 11 13 6 7 1016.6 1016.6 0.0
05/12:00am 9.2 5.7 7.3 88 0.9 NNE 15 17 8 9 1016.7 1016.7 0.0
 
Date/Time
CST
Temp
°C
App
Temp
°C
Dew
Point
Rel
Hum
%
Delta-T
°C
Wind Press
QNH
hPa
Press
MSL
hPa
Rain
since 9 am
mm
Dir
 
Spd
km/h
Gust
km/h
Spd
kts
Gust
kts
04/11:30pm 10.1 6.8 8.0 87 1.0 NNE 15 17 8 9 1016.8 1016.8 0.0
04/11:00pm 9.4 6.3 7.3 87 1.0 N 13 15 7 8 1016.9 1016.9 0.0
04/10:30pm 10.5 7.2 8.1 85 1.2 NNE 15 17 8 9 1017.1 1017.1 0.0
04/10:00pm 11.4 9.7 8.4 82 1.5 N 7 9 4 5 1017.3 1017.3 0.0
04/09:30pm 13.2 11.4 9.3 77 2.0 N 9 11 5 6 1017.3 1017.3 0.0
04/09:00pm 13.5 11.7 9.4 76 2.1 NW 9 11 5 6 1017.3 1017.3 0.0
04/08:30pm 15.9 14.4 10.7 71 2.8 NW 9 9 5 5 1017.1 1017.1 0.0
04/08:00pm 16.0 14.5 10.7 71 2.8 NW 9 9 5 5 1017.1 1017.1 0.0
04/07:30pm 16.1 14.6 10.4 69 3.0 NW 9 9 5 5 1017.0 1017.0 0.0
04/07:00pm 16.7 15.1 10.3 66 3.4 NW 9 9 5 5 1016.9 1016.9 0.0
04/06:30pm 16.9 15.6 10.1 64 3.6 NW 7 9 4 5 1016.6 1016.6 0.0
04/06:00pm 17.4 15.3 9.8 61 4.0 NW 11 13 6 7 1016.2 1016.2 0.0
04/05:30pm 17.7 15.6 9.6 59 4.3 NW 11 17 6 9 1016.1 1016.1 0.0
04/05:00pm 18.0 15.5 9.6 58 4.4 NW 13 17 7 9 1016.0 1015.9 0.0
04/04:30pm 18.1 14.4 9.5 57 4.5 NNW 19 26 10 14 1016.0 1015.9 0.0
04/04:00pm 18.2 14.4 9.0 55 4.8 NW 19 24 10 13 1015.9 1015.8 0.0
04/03:30pm 18.7 14.8 9.5 55 4.9 NW 20 28 11 15 1016.0 1015.9 0.0
04/03:00pm 18.7 14.2 8.4 51 5.3 WNW 22 33 12 18 1016.0 1015.9 0.0
04/02:30pm 19.1 14.3 9.0 52 5.3 NW 24 32 13 17 1016.3 1016.3 0.0
04/02:00pm 18.8 14.5 9.3 54 5.0 NW 22 35 12 19 1016.3 1016.3 0.0
04/01:30pm 18.1 13.5 9.5 57 4.5 NW 24 32 13 17 1016.5 1016.5 0.0
04/01:00pm 17.7 13.7 9.1 57 4.5 NW 20 30 11 16 1016.8 1016.8 0.0
04/12:30pm 18.1 13.8 9.2 56 4.7 NW 22 28 12 15 1017.1 1017.1 0.0
04/12:00pm 17.6 12.9 9.2 58 4.4 NW 24 33 13 18 1017.5 1017.5 0.0
04/11:30am 17.4 12.8 9.8 61 4.0 NW 24 35 13 19 1017.8 1017.8 0.0
04/11:00am 17.5 13.1 10.4 63 3.8 NW 24 33 13 18 1017.9 1017.9 0.0
04/10:30am 17.1 13.3 11.2 68 3.2 WNW 22 33 12 18 1018.0 1018.0 0.0
04/10:00am 16.4 13.3 12.2 76 2.3 NW 20 28 11 15 1018.2 1018.2 0.0
04/09:30am 15.5 12.2 12.8 84 1.5 WNW 22 30 12 16 1018.1 1018.1 0.0
04/09:00am 15.2 12.6 13.1 87 1.2 NNW 19 22 10 12 1018.1 1018.1 1.6
04/08:30am 13.1 11.6 11.8 92 0.7 NW 11 13 6 7 1018.1 1018.1 1.6
04/08:00am 13.4 10.6 11.5 88 1.0 WNW 17 24 9 13 1017.8 1017.8 1.6
04/07:30am 12.3 9.5 11.2 93 0.6 NW 17 19 9 10 1017.3 1017.3 1.6
04/07:00am 9.1 6.7 8.5 96 0.3 NW 11 15 6 8 1016.9 1016.9 1.6
04/06:30am 8.2 6.3 7.4 95 0.4 NW 7 9 4 5 1016.5 1016.5 1.6
04/06:00am 9.2 6.7 8.4 95 0.4 N 11 13 6 7 1016.3 1016.3 1.6
04/05:30am 8.9 6.7 7.8 93 0.5 WNW 9 13 5 7 1016.0 1015.9 1.6
04/05:00am 9.5 8.0 8.4 93 0.5 W 6 9 3 5 1015.8 1015.7 1.6
04/04:30am 10.3 8.4 9.1 92 0.6 WSW 9 13 5 7 1015.4 1015.3 1.6
04/04:00am 11.2 8.8 10.1 93 0.6 W 13 15 7 8 1015.3 1015.2 1.6
04/03:30am 11.5 9.6 10.4 93 0.6 W 11 13 6 7 1015.3 1015.2 1.6
04/03:00am 12.1 9.5 10.8 92 0.7 WSW 15 19 8 10 1015.2 1015.1 1.6
04/02:30am 12.6 9.8 11.3 92 0.7 W 17 24 9 13 1015.4 1015.3 1.4
04/02:00am 12.6 7.8 11.5 93 0.6 WSW 28 39 15 21 1015.3 1015.2 1.4
04/01:53am 12.9 9.2 11.5 91 0.7 W 22 39 12 21 1015.3 1015.2 1.4
04/01:30am 13.0 10.3 11.6 91 0.7 WNW 17 19 9 10 1015.0 1014.9 1.0
04/01:00am 12.7 10.3 11.3 91 0.7 W 15 19 8 10 1015.0 1014.9 1.0
04/12:30am 12.1 9.9 10.8 92 0.7 W 13 15 7 8 1015.0 1014.9 1.0
04/12:00am 13.3 11.0 11.9 91 0.8 WSW 15 19 8 10 1015.0 1014.9 1.0
 
Date/Time
CST
Temp
°C
App
Temp
°C
Dew
Point
Rel
Hum
%
Delta-T
°C
Wind Press
QNH
hPa
Press
MSL
hPa
Rain
since 9 am
mm
Dir
 
Spd
km/h
Gust
km/h
Spd
kts
Gust
kts
03/11:30pm 13.5 11.8 12.4 93 0.6 SW 13 17 7 9 1015.1 1015.0 1.0
03/11:00pm 13.3 12.2 12.0 92 0.7 WSW 9 11 5 6 1014.9 1014.8 0.8
03/10:30pm 13.5 11.3 12.1 91 0.8 W 15 19 8 10 1014.9 1014.8 0.8
03/10:00pm 14.0 11.6 12.7 92 0.7 W 17 24 9 13 1014.8 1014.7 0.8
03/09:30pm 13.8 12.6 12.7 93 0.6 WSW 11 17 6 9 1014.8 1014.7 0.8
03/09:00pm 13.8 12.9 12.7 93 0.6 SW 9 11 5 6 1014.6 1014.5 0.6
03/08:30pm 14.3 12.0 12.9 91 0.8 W 17 22 9 12 1014.4 1014.3 0.6
03/08:00pm 14.1 11.7 12.8 92 0.7 W 17 20 9 11 1014.1 1014.0 0.6
03/07:30pm 14.5 12.1 12.5 88 1.1 WSW 17 20 9 11 1013.6 1013.5 0.4
03/07:00pm 14.8 12.9 11.8 82 1.6 WSW 13 17 7 9 1013.1 1013.0 0.4
03/06:30pm 14.2 14.4 11.9 86 1.2 SW 2 7 1 4 1012.5 1012.5 0.4
03/06:00pm 14.2 13.7 12.1 87 1.1 SSW 6 7 3 4 1012.2 1012.2 0.4
03/05:30pm 14.8 13.3 11.9 83 1.6 SW 11 17 6 9 1011.7 1011.7 0.4
03/05:00pm 15.4 12.6 12.5 83 1.6 SW 19 26 10 14 1011.6 1011.6 0.4
03/04:30pm 17.1 11.0 13.0 77 2.3 WSW 37 54 20 29 1010.9 1010.9 0.4
03/04:28pm 17.4 11.6 12.7 74 2.6 WSW 35 54 19 29 1010.9 1010.9 0.4
03/04:00pm 18.2 12.9 12.6 70 3.1 WSW 32 44 17 24 1010.5 1010.5 0.4
03/03:30pm 18.1 13.0 13.0 72 2.9 W 32 41 17 22 1010.0 1010.0 0.4
03/03:00pm 17.3 12.1 14.6 84 1.6 W 35 48 19 26 1009.8 1009.8 0.4
03/02:30pm 19.7 12.3 11.2 58 4.7 WNW 41 52 22 28 1009.2 1009.2 0.0
03/02:15pm 20.4 14.3 11.9 58 4.8 WNW 35 54 19 29 1009.2 1009.2 0.0
03/02:00pm 19.1 13.3 12.6 66 3.7 WNW 35 50 19 27 1009.2 1009.2 0.0
03/01:30pm 18.9 12.8 14.2 74 2.7 WNW 39 54 21 29 1009.0 1009.0 0.0
03/01:19pm 17.6 10.9 15.0 85 1.5 WNW 44 63 24 34 1009.2 1009.2 0.0
03/01:00pm 19.6 11.9 12.1 62 4.2 WNW 44 61 24 33 1009.1 1009.1 0.0
03/12:37pm 20.9 13.2 11.5 55 5.2 NW 43 61 23 33 1009.2 1009.2 0.0
03/12:30pm 20.4 12.5 11.6 57 4.9 NW 44 61 24 33 1009.2 1009.2 0.0
03/12:00pm 20.4 12.5 11.6 57 4.9 WNW 44 63 24 34 1009.4 1009.4 0.0
03/11:56am 20.5 12.7 11.7 57 4.9 WNW 44 63 24 34 1009.4 1009.4 0.0
03/11:30am 20.2 12.6 11.9 59 4.6 WNW 43 56 23 30 1009.4 1009.4 0.0
03/11:00am 20.2 13.5 12.4 61 4.4 WNW 39 59 21 32 1010.1 1010.1 0.0
03/10:56am 19.7 12.7 12.5 63 4.1 WNW 41 59 22 32 1010.2 1010.2 0.0
03/10:30am 17.3 9.6 11.6 69 3.1 NW 43 57 23 31 1010.2 1010.2 0.0
03/10:00am 15.4 8.2 11.8 79 2.0 NW 41 61 22 33 1010.3 1010.3 0.0
03/09:30am 16.8 9.5 10.2 65 3.5 NW 39 57 21 31 1010.1 1010.1 0.0
03/09:00am 16.9 9.2 10.1 64 3.6 NW 41 56 22 30 1009.9 1009.9 0.0
03/08:30am 16.0 8.9 9.4 65 3.4 NNW 37 52 20 28 1010.0 1010.0 0.0
03/08:00am 15.1 8.6 8.8 66 3.2 NNW 33 44 18 24 1009.8 1009.8 0.0
03/07:30am 15.0 8.4 8.7 66 3.2 NNW 33 43 18 23 1009.7 1009.7 0.0
03/07:00am 14.6 9.0 8.8 68 3.0 NNW 28 37 15 20 1009.7 1009.7 0.0
03/06:30am 14.1 9.2 8.5 69 2.8 NNW 24 32 13 17 1009.8 1009.8 0.0
03/06:00am 13.7 9.1 8.1 69 2.8 NW 22 32 12 17 1009.7 1009.7 0.0
03/05:30am 13.1 8.3 7.5 69 2.8 NW 22 28 12 15 1009.4 1009.4 0.0
03/05:00am 13.3 8.9 7.3 67 2.9 NW 20 26 11 14 1009.5 1009.5 0.0
03/04:30am 13.1 7.9 7.3 68 2.8 NW 24 32 13 17 1009.4 1009.4 0.0
03/04:00am 14.1 7.4 7.4 64 3.3 NW 32 41 17 22 1009.1 1009.1 0.0
03/03:30am 14.1 9.1 7.9 66 3.1 NW 24 32 13 17 1009.4 1009.4 0.0
03/03:00am 14.0 8.6 7.8 66 3.1 NW 26 32 14 17 1009.6 1009.6 0.0
03/02:30am 13.8 8.6 7.3 65 3.2 NW 24 30 13 16 1010.2 1010.2 0.0
03/02:00am 12.9 8.6 7.8 71 2.5 NNW 20 28 11 15 1010.5 1010.5 0.0
03/01:30am 13.0 9.9 8.7 75 2.2 NNW 15 20 8 11 1010.8 1010.8 0.0
03/01:00am 13.2 9.3 8.7 74 2.3 NNW 19 22 10 12 1011.1 1011.1 0.0
03/12:30am 13.5 10.2 9.6 77 2.0 NNW 17 20 9 11 1011.4 1011.4 0.0
03/12:00am 13.7 10.8 9.7 77 2.1 NNW 15 20 8 11 1011.5 1011.5 0.0

Other Formats:

Comma delimited format used in spreadsheet applications
http://www.bom.gov.au/fwo/IDS60801/IDS60801.95670.axf

JavaScript Object Notation format (JSON) in row-major order
http://www.bom.gov.au/fwo/IDS60801/IDS60801.95670.json